createdAt,value
2023-01-17T00:02:16.930Z,2.64
2023-01-17T00:05:02.688Z,2.62
2023-01-17T00:07:48.808Z,2.59
2023-01-17T00:10:18.567Z,2.54
2023-01-17T00:12:51.440Z,2.46
2023-01-17T00:15:25.556Z,2.40
2023-01-17T00:17:52.852Z,2.35
2023-01-17T00:20:48.929Z,2.31
2023-01-17T00:23:40.390Z,2.25
2023-01-17T00:26:17.881Z,2.20
2023-01-17T00:28:44.758Z,2.17
2023-01-17T00:31:13.880Z,2.15
2023-01-17T00:33:40.889Z,2.13
2023-01-17T00:36:08.475Z,2.09
2023-01-17T00:38:37.315Z,2.04
2023-01-17T00:41:09.670Z,2.02
2023-01-17T00:43:55.435Z,1.99
2023-01-17T00:46:43.104Z,1.98
2023-01-17T00:49:28.541Z,1.95
2023-01-17T00:52:15.016Z,1.92
2023-01-17T00:55:00.306Z,1.91
2023-01-17T00:57:45.608Z,1.86
2023-01-17T01:00:31.979Z,1.82
2023-01-17T04:48:04.216Z,1.04
2023-01-17T04:50:32.809Z,1.18
2023-01-17T04:53:01.156Z,1.20
2023-01-17T04:55:28.232Z,1.21
2023-01-17T04:57:55.801Z,1.24
2023-01-17T05:00:24.256Z,1.24
2023-01-17T05:02:52.202Z,1.25
2023-01-17T05:05:19.624Z,1.24
2023-01-17T05:07:57.286Z,1.26
2023-01-17T05:10:25.003Z,1.28
2023-01-17T05:12:58.983Z,1.28
2023-01-17T05:15:28.434Z,1.25
2023-01-17T05:17:55.751Z,1.24
2023-01-17T05:20:24.309Z,1.24
2023-01-17T05:22:56.108Z,1.23
2023-01-17T05:25:28.792Z,1.22
2023-01-17T05:27:56.304Z,1.21
2023-01-17T05:30:23.509Z,1.17
2023-01-17T05:32:52.208Z,1.15
2023-01-17T05:35:20.626Z,1.12
2023-01-17T05:37:51.950Z,1.11
2023-01-17T05:40:20.733Z,1.10
2023-01-17T05:42:49.923Z,1.10
2023-01-17T05:45:18.100Z,1.08
2023-01-17T05:47:47.031Z,1.08
2023-01-17T05:50:17.500Z,1.07
2023-01-17T05:52:58.881Z,1.04
2023-01-17T05:55:27.237Z,1.06
2023-01-17T05:57:55.134Z,1.04
2023-01-17T06:00:22.590Z,1.01
2023-01-17T06:02:50.688Z,0.98
2023-01-17T06:05:17.875Z,0.96
2023-01-17T06:07:45.907Z,0.96
2023-01-17T06:10:15.220Z,0.97
2023-01-17T06:12:43.899Z,0.99
2023-01-17T06:15:11.983Z,1.00
2023-01-17T06:17:39.620Z,1.02
2023-01-17T06:20:08.583Z,1.05
2023-01-17T06:22:36.258Z,1.09
2023-01-17T06:25:03.960Z,1.12
2023-01-17T06:27:31.622Z,1.15
2023-01-17T06:30:05.989Z,1.17
2023-01-17T06:32:33.154Z,1.18
2023-01-17T06:35:00.592Z,1.21
2023-01-17T06:37:27.736Z,1.25
2023-01-17T06:39:55.411Z,1.29
2023-01-17T06:42:23.739Z,1.37
2023-01-17T06:44:51.040Z,1.40
2023-01-17T06:47:18.639Z,1.43
2023-01-17T06:49:46.274Z,1.44
2023-01-17T06:52:15.361Z,1.48
2023-01-17T06:54:42.572Z,1.54
2023-01-17T06:57:09.837Z,1.58
2023-01-17T06:59:37.061Z,1.64
2023-01-17T07:02:04.193Z,1.67
2023-01-17T07:04:32.060Z,1.71
2023-01-17T07:07:01.407Z,1.74
2023-01-17T07:09:28.791Z,1.77
2023-01-17T07:11:59.959Z,1.81
2023-01-17T07:14:27.477Z,1.87
2023-01-17T07:16:56.000Z,1.92
2023-01-17T07:19:24.270Z,1.96
2023-01-17T07:21:52.966Z,2.01
2023-01-17T07:24:21.970Z,2.10
2023-01-17T07:26:52.657Z,2.18
2023-01-17T07:29:20.948Z,2.23
2023-01-17T07:32:05.602Z,2.27
2023-01-17T07:34:33.701Z,2.29
2023-01-17T07:37:02.798Z,2.31
2023-01-17T07:39:43.037Z,2.34
2023-01-17T07:42:13.612Z,2.42
2023-01-17T07:44:44.688Z,2.48
2023-01-17T07:47:18.076Z,2.57
2023-01-17T07:49:47.731Z,2.66
2023-01-17T07:52:18.434Z,2.73
2023-01-17T07:54:46.821Z,2.78
2023-01-17T07:57:15.049Z,2.84
2023-01-17T07:59:42.351Z,2.90
2023-01-17T08:02:20.723Z,2.96
2023-01-17T08:04:48.025Z,3.03
2023-01-17T08:07:15.388Z,3.10
2023-01-17T08:09:45.551Z,3.18
2023-01-17T08:12:12.852Z,3.25
2023-01-17T08:14:41.038Z,3.32
2023-01-17T08:17:17.711Z,3.39
2023-01-17T08:19:45.443Z,3.42
2023-01-17T08:22:15.556Z,3.46
2023-01-17T08:24:44.411Z,3.50
2023-01-17T08:27:11.840Z,3.57
2023-01-17T08:29:43.757Z,3.62
2023-01-17T08:32:14.496Z,3.71
2023-01-17T08:34:42.671Z,3.82
2023-01-17T08:37:11.317Z,3.92
2023-01-17T08:46:24.412Z,4.13
2023-01-17T08:49:14.265Z,4.18
2023-01-17T09:03:56.032Z,4.40
2023-01-17T09:09:45.049Z,4.44
2023-01-17T09:12:27.073Z,4.47
2023-01-17T09:15:09.187Z,4.53
2023-01-17T09:17:39.575Z,4.61
2023-01-17T09:20:13.297Z,4.68
2023-01-17T09:22:45.081Z,4.73
2023-01-17T09:25:14.250Z,4.80
2023-01-17T09:27:47.128Z,4.86
2023-01-17T09:30:32.011Z,4.94
2023-01-17T09:33:00.975Z,5.00
2023-01-17T09:35:30.373Z,5.06
2023-01-17T09:38:24.578Z,5.12
2023-01-17T09:40:52.339Z,5.16
2023-01-17T09:43:41.048Z,5.17
2023-01-17T09:46:22.259Z,5.14
2023-01-17T09:48:57.393Z,5.12
2023-01-17T09:51:25.877Z,5.12
2023-01-17T09:53:53.378Z,5.15
2023-01-17T09:56:27.953Z,5.18
2023-01-17T09:59:21.014Z,5.21
2023-01-17T16:05:23.614Z,5.87
2023-01-17T16:08:05.718Z,5.86
2023-01-17T16:10:36.805Z,5.85
2023-01-17T16:13:06.259Z,5.84
2023-01-17T16:15:36.703Z,5.83
2023-01-17T16:18:28.567Z,5.84
2023-01-17T16:21:00.591Z,5.82
2023-01-17T16:23:28.555Z,5.83
2023-01-17T16:25:57.697Z,5.83
2023-01-17T16:28:28.702Z,5.83
2023-01-17T16:31:01.919Z,5.85
2023-01-17T16:33:30.157Z,5.85
2023-01-17T16:36:08.468Z,5.87
2023-01-17T16:38:35.650Z,5.86
2023-01-17T16:41:17.326Z,5.83
2023-01-17T16:43:59.854Z,5.82
2023-01-17T16:46:29.123Z,5.82
2023-01-17T16:49:04.469Z,5.80
2023-01-17T16:54:35.776Z,5.80
2023-01-17T16:57:04.086Z,5.78
2023-01-17T16:59:45.923Z,5.80
2023-01-17T17:02:19.257Z,5.80
2023-01-17T17:04:46.760Z,5.79
2023-01-17T17:07:13.807Z,5.80
2023-01-17T17:09:40.909Z,5.81
2023-01-17T17:12:10.762Z,5.83
2023-01-17T17:14:43.584Z,5.82
2023-01-17T17:17:11.051Z,5.82
2023-01-17T17:19:38.590Z,5.87
2023-01-17T17:22:10.139Z,5.88
2023-01-17T17:24:46.393Z,5.88
2023-01-17T17:27:15.757Z,5.86
2023-01-17T17:29:44.096Z,5.86
2023-01-17T17:32:14.267Z,5.85
2023-01-17T17:34:58.414Z,5.85
2023-01-17T17:37:30.847Z,5.86
2023-01-17T17:40:02.669Z,5.84
2023-01-17T17:42:30.716Z,5.87
2023-01-17T17:45:04.672Z,5.87
2023-01-17T17:47:34.947Z,5.88
2023-01-17T17:50:02.492Z,5.89
2023-01-17T17:52:32.751Z,5.89
2023-01-17T17:55:00.484Z,5.89
2023-01-17T17:57:28.190Z,5.89
2023-01-17T18:00:15.635Z,5.89
2023-01-17T18:02:52.790Z,5.89
2023-01-17T18:05:22.440Z,5.91
2023-01-17T18:07:52.866Z,5.94
2023-01-17T18:10:21.036Z,5.95
2023-01-17T18:12:52.129Z,5.96
2023-01-17T18:15:54.145Z,5.98
2023-01-17T18:18:25.252Z,6.02
2023-01-17T18:20:57.267Z,6.03
2023-01-17T18:23:28.569Z,6.04
2023-01-17T18:25:56.025Z,6.07
2023-01-17T18:28:23.432Z,6.04
2023-01-17T18:30:50.767Z,6.05
2023-01-17T18:33:20.921Z,6.05
2023-01-17T18:35:58.796Z,6.03
2023-01-17T18:38:38.859Z,5.99
2023-01-17T18:41:11.746Z,6.00
2023-01-17T18:43:38.984Z,6.00
2023-01-17T18:46:09.879Z,5.99
2023-01-17T18:48:48.789Z,5.97
2023-01-17T18:51:20.610Z,5.95
2023-01-17T18:53:48.389Z,5.92
2023-01-17T18:56:19.436Z,5.90
2023-01-17T18:58:49.347Z,5.92
2023-01-17T19:01:26.834Z,5.92
2023-01-17T19:03:59.955Z,5.91
2023-01-17T19:06:52.319Z,5.92
2023-01-17T19:09:19.926Z,5.92
2023-01-17T19:11:50.107Z,5.92
2023-01-17T22:32:24.545Z,5.79
2023-01-17T22:34:52.772Z,6.01
2023-01-17T22:37:19.969Z,6.10
2023-01-17T22:39:47.044Z,6.17
2023-01-17T22:42:15.360Z,6.24
2023-01-17T22:44:42.266Z,6.26
2023-01-17T22:47:09.190Z,6.29
2023-01-17T22:49:36.144Z,6.33
2023-01-17T22:52:03.252Z,6.37
2023-01-17T22:54:30.225Z,6.39
2023-01-17T22:56:59.107Z,6.41
2023-01-17T22:59:26.058Z,6.44
2023-01-17T23:01:53.781Z,6.47
2023-01-17T23:04:20.713Z,6.49
2023-01-17T23:06:47.711Z,6.51
2023-01-17T23:09:15.454Z,6.52
2023-01-17T23:11:47.301Z,6.51
2023-01-17T23:14:21.909Z,6.50
2023-01-17T23:17:13.729Z,6.50
2023-01-17T23:19:51.083Z,6.51
2023-01-17T23:22:27.178Z,6.53
2023-01-17T23:24:55.317Z,6.55
2023-01-17T23:27:41.910Z,6.58
2023-01-17T23:30:20.773Z,6.61
2023-01-17T23:32:59.397Z,6.62
2023-01-17T23:35:29.182Z,6.66
2023-01-17T23:38:14.975Z,6.67
2023-01-17T23:40:42.042Z,6.68
2023-01-17T23:43:25.231Z,6.67
2023-01-17T23:45:53.112Z,6.68
2023-01-17T23:48:20.864Z,6.69
2023-01-17T23:50:48.101Z,6.68
2023-01-17T23:53:22.392Z,6.68
2023-01-17T23:55:54.083Z,6.69
2023-01-17T23:58:25.553Z,6.72
